createdAt,value
2019-01-21T00:00:38.265Z,20.60
2019-01-21T00:03:14.276Z,20.60
2019-01-21T00:05:38.900Z,20.60
2019-01-21T00:08:07.814Z,20.60
2019-01-21T00:10:37.017Z,20.60
2019-01-21T00:13:05.965Z,20.60
2019-01-21T00:15:53.963Z,20.60
2019-01-21T00:18:22.845Z,20.60
2019-01-21T00:21:10.969Z,20.60
2019-01-21T00:23:40.066Z,20.60
2019-01-21T00:26:09.023Z,20.50
2019-01-21T00:28:37.978Z,20.50
2019-01-21T00:31:07.125Z,20.60
2019-01-21T00:33:35.894Z,20.50
2019-01-21T00:36:04.855Z,20.50
2019-01-21T00:38:33.665Z,20.50
2019-01-21T00:41:02.544Z,20.60
2019-01-21T00:43:31.321Z,20.50
2019-01-21T00:46:00.206Z,20.50
2019-01-21T00:48:28.981Z,20.50
2019-01-21T00:50:57.841Z,20.50
2019-01-21T00:53:26.622Z,20.50
2019-01-21T00:55:55.429Z,20.50
2019-01-21T00:58:24.224Z,20.50
2019-01-21T01:00:53.159Z,20.50
2019-01-21T01:03:22.034Z,20.50
2019-01-21T01:05:50.907Z,20.50
2019-01-21T01:08:19.745Z,20.50
2019-01-21T01:10:48.601Z,20.50
2019-01-21T01:13:17.602Z,20.50
2019-01-21T01:15:46.358Z,20.50
2019-01-21T01:18:15.153Z,20.50
2019-01-21T01:20:44.342Z,20.50
2019-01-21T01:23:13.201Z,20.50
2019-01-21T01:25:42.022Z,20.50
2019-01-21T01:28:10.802Z,20.50
2019-01-21T01:30:39.591Z,20.50
2019-01-21T01:33:08.569Z,20.50
2019-01-21T01:35:37.360Z,20.50
2019-01-21T01:38:06.338Z,20.50
2019-01-21T01:40:35.261Z,20.50
2019-01-21T01:43:04.286Z,20.50
2019-01-21T01:45:33.203Z,20.50
2019-01-21T01:48:03.021Z,20.50
2019-01-21T01:50:32.582Z,20.50
2019-01-21T01:53:01.644Z,20.50
2019-01-21T01:55:31.674Z,20.50
2019-01-21T01:58:05.734Z,20.50
2019-01-21T02:00:35.185Z,20.50
2019-01-21T02:03:04.292Z,20.40
2019-01-21T02:05:33.149Z,20.50
2019-01-21T02:08:02.091Z,20.50
2019-01-21T02:10:31.301Z,20.40
2019-01-21T02:13:00.353Z,20.50
2019-01-21T02:15:29.109Z,20.50
2019-01-21T02:17:57.886Z,20.40
2019-01-21T02:20:26.892Z,20.50
2019-01-21T02:22:58.959Z,20.40
2019-01-21T02:25:49.557Z,20.40
2019-01-21T02:28:44.373Z,20.40
2019-01-21T02:32:00.696Z,20.40
2019-01-21T02:34:40.657Z,20.40
2019-01-21T02:37:57.079Z,20.40
2019-01-21T02:40:47.791Z,20.40
2019-01-21T02:44:13.209Z,20.40
2019-01-21T02:47:17.121Z,20.40
2019-01-21T02:50:33.386Z,20.40
2019-01-21T02:53:31.667Z,20.40
2019-01-21T02:56:43.649Z,20.40
2019-01-21T02:59:38.554Z,20.40
2019-01-21T03:02:48.969Z,20.40
2019-01-21T03:05:24.847Z,20.40
2019-01-21T03:08:15.879Z,20.40
2019-01-21T03:11:08.749Z,20.40
2019-01-21T03:13:53.954Z,20.40
2019-01-21T03:17:08.633Z,20.40
2019-01-21T03:19:59.106Z,20.40
2019-01-21T03:22:45.994Z,20.40
2019-01-21T03:26:08.814Z,20.40
2019-01-21T03:29:21.018Z,20.40
2019-01-21T03:32:17.195Z,20.40
2019-01-21T03:35:36.547Z,20.40
2019-01-21T03:38:37.064Z,20.40
2019-01-21T03:41:11.282Z,20.40
2019-01-21T03:44:18.681Z,20.40
2019-01-21T03:47:15.625Z,20.40
2019-01-21T03:50:14.383Z,20.40
2019-01-21T03:53:06.253Z,20.40
2019-01-21T03:55:35.849Z,20.40
2019-01-21T03:58:33.610Z,20.40
2019-01-21T04:01:12.383Z,20.40
2019-01-21T04:04:28.219Z,20.40
2019-01-21T04:07:23.046Z,20.40
2019-01-21T04:10:25.403Z,20.40
2019-01-21T04:13:34.303Z,20.40
2019-01-21T04:16:36.603Z,20.40
2019-01-21T04:19:31.945Z,20.40
2019-01-21T04:22:32.052Z,20.30
2019-01-21T04:25:26.141Z,20.30
2019-01-21T04:28:45.769Z,20.30
2019-01-21T04:31:55.821Z,20.30
2019-01-21T04:35:18.246Z,20.30
2019-01-21T04:38:24.362Z,20.30
2019-01-21T04:41:19.175Z,20.30
2019-01-21T04:44:27.658Z,20.30
2019-01-21T04:47:46.797Z,20.30
2019-01-21T04:50:48.807Z,20.30
2019-01-21T04:53:33.866Z,20.30
2019-01-21T04:56:49.286Z,20.30
2019-01-21T04:59:53.345Z,20.30
2019-01-21T05:03:03.617Z,20.30
2019-01-21T05:05:52.797Z,20.30
2019-01-21T05:08:55.775Z,20.30
2019-01-21T05:11:45.743Z,20.30
2019-01-21T05:14:49.565Z,20.30
2019-01-21T05:17:55.052Z,20.30
2019-01-21T05:20:52.215Z,20.30
2019-01-21T05:23:54.799Z,20.30
2019-01-21T05:26:56.839Z,20.30
2019-01-21T05:30:10.179Z,20.30
2019-01-21T05:33:07.867Z,20.30
2019-01-21T05:36:18.066Z,20.30
2019-01-21T05:39:00.134Z,20.30
2019-01-21T05:45:14.069Z,20.30
2019-01-21T05:48:48.962Z,20.30
2019-01-21T05:51:44.482Z,20.30
2019-01-21T05:54:49.498Z,20.40
2019-01-21T05:57:44.429Z,20.40
2019-01-21T06:00:38.005Z,20.40
2019-01-21T06:03:23.667Z,20.40
2019-01-21T06:06:15.413Z,20.40
2019-01-21T06:09:21.723Z,20.40
2019-01-21T06:12:31.550Z,20.40
2019-01-21T06:15:53.506Z,20.40
2019-01-21T06:18:45.880Z,20.40
2019-01-21T06:21:53.282Z,20.40
2019-01-21T06:25:12.672Z,20.40
2019-01-21T06:28:30.050Z,20.30
2019-01-21T06:31:37.582Z,20.40
2019-01-21T06:34:37.870Z,20.40
2019-01-21T06:37:35.282Z,20.50
2019-01-21T06:40:20.527Z,20.50
2019-01-21T06:43:23.233Z,20.50
2019-01-21T06:46:36.386Z,20.50
2019-01-21T06:49:32.488Z,20.50
2019-01-21T06:52:27.554Z,20.60
2019-01-21T06:55:18.585Z,20.60
2019-01-21T06:58:06.864Z,20.60
2019-01-21T07:01:21.009Z,20.60
2019-01-21T07:04:18.241Z,20.60
2019-01-21T07:07:34.490Z,20.60
2019-01-21T07:10:36.517Z,20.60
2019-01-21T07:13:21.753Z,20.60
2019-01-21T07:16:27.617Z,20.60
2019-01-21T07:19:29.817Z,20.60
2019-01-21T07:22:30.661Z,20.60
2019-01-21T07:25:43.110Z,20.60
2019-01-21T07:28:47.230Z,20.70
2019-01-21T07:31:51.434Z,20.60
2019-01-21T07:34:59.858Z,20.60
2019-01-21T07:38:12.165Z,20.70
2019-01-21T07:41:18.557Z,20.70
2019-01-21T07:44:20.085Z,20.70
2019-01-21T07:47:24.563Z,20.70
2019-01-21T07:50:35.102Z,20.70
2019-01-21T07:53:26.355Z,20.70
2019-01-21T07:56:30.305Z,20.70
2019-01-21T07:59:32.785Z,20.70
2019-01-21T08:02:19.781Z,20.70
2019-01-21T08:05:05.087Z,20.70
2019-01-21T08:08:07.781Z,20.70
2019-01-21T08:11:19.783Z,20.70
2019-01-21T08:14:23.593Z,20.70
2019-01-21T08:17:08.917Z,20.70
2019-01-21T08:20:10.394Z,20.70
2019-01-21T08:23:17.085Z,20.70
2019-01-21T08:26:27.821Z,20.80
2019-01-21T08:29:46.904Z,20.80
2019-01-21T08:32:34.086Z,20.80
2019-01-21T08:35:33.914Z,20.80
2019-01-21T08:38:56.133Z,20.80
2019-01-21T08:42:18.582Z,20.80
2019-01-21T08:45:25.674Z,20.80
2019-01-21T08:48:37.794Z,20.90
2019-01-21T08:51:34.013Z,20.90
2019-01-21T08:54:26.321Z,20.90
2019-01-21T08:57:38.629Z,21.00
2019-01-21T09:00:13.778Z,21.00
2019-01-21T09:03:07.148Z,21.00
2019-01-21T09:06:23.130Z,21.00
2019-01-21T09:09:38.521Z,21.00
2019-01-21T09:12:43.065Z,21.00
2019-01-21T09:15:45.689Z,21.00
2019-01-21T09:19:09.996Z,21.00
2019-01-21T09:22:03.622Z,21.00
2019-01-21T09:25:37.886Z,21.00
2019-01-21T09:28:23.814Z,21.00
2019-01-21T09:31:33.690Z,21.00
2019-01-21T09:34:49.917Z,21.10
2019-01-21T09:37:55.729Z,21.10
2019-01-21T09:41:12.709Z,21.10
2019-01-21T09:44:10.177Z,21.20
2019-01-21T09:46:50.512Z,21.20
2019-01-21T09:49:18.030Z,21.30
2019-01-21T09:52:11.885Z,21.30
2019-01-21T09:54:41.590Z,21.40
2019-01-21T09:57:17.297Z,21.40
2019-01-21T10:00:07.406Z,21.40
2019-01-21T10:02:43.316Z,21.40
2019-01-21T10:05:16.806Z,21.50
2019-01-21T10:08:32.697Z,21.50
2019-01-21T10:11:13.574Z,21.50
2019-01-21T10:14:38.129Z,21.60
2019-01-21T10:17:51.154Z,21.70
2019-01-21T10:20:43.009Z,21.70
2019-01-21T10:23:38.256Z,21.70
2019-01-21T10:26:43.273Z,21.80
2019-01-21T10:30:11.844Z,21.80
2019-01-21T10:33:22.201Z,21.90
2019-01-21T10:36:21.182Z,22.00
2019-01-21T10:39:30.110Z,22.10
2019-01-21T10:42:36.281Z,22.10
2019-01-21T10:45:40.578Z,22.20
2019-01-21T10:48:36.112Z,22.30
2019-01-21T10:51:22.792Z,22.90
2019-01-21T10:54:15.363Z,23.30
2019-01-21T10:57:08.549Z,22.90
2019-01-21T11:00:30.166Z,22.60
2019-01-21T11:03:27.680Z,22.80
2019-01-21T11:06:59.349Z,23.60
2019-01-21T11:09:42.897Z,24.30
2019-01-21T11:12:55.434Z,24.70
2019-01-21T11:16:20.463Z,25.10
2019-01-21T11:19:22.421Z,25.40
2019-01-21T11:22:21.773Z,24.40
2019-01-21T11:25:39.827Z,23.80
2019-01-21T11:28:24.613Z,24.00
2019-01-21T11:31:17.687Z,24.50
2019-01-21T11:33:54.149Z,24.90
2019-01-21T11:36:57.945Z,25.10
2019-01-21T11:40:08.343Z,25.00
2019-01-21T11:43:18.057Z,24.10
2019-01-21T11:46:34.235Z,23.50
2019-01-21T11:49:59.645Z,23.10
2019-01-21T11:53:00.242Z,22.80
2019-01-21T11:55:53.922Z,22.60
2019-01-21T11:59:17.891Z,22.50
2019-01-21T12:02:37.614Z,22.40
2019-01-21T12:05:32.530Z,22.30
2019-01-21T12:08:29.100Z,22.20
2019-01-21T12:11:22.634Z,22.10
2019-01-21T12:14:41.698Z,22.00
2019-01-21T12:17:47.801Z,22.00
2019-01-21T12:21:07.235Z,21.90
2019-01-21T12:24:00.571Z,21.90
2019-01-21T12:26:55.658Z,21.90
2019-01-21T12:30:08.106Z,21.80
2019-01-21T12:33:07.520Z,21.70
2019-01-21T12:35:56.584Z,21.70
2019-01-21T12:38:43.410Z,21.70
2019-01-21T12:42:08.892Z,21.60
2019-01-21T12:45:02.482Z,21.60
2019-01-21T12:48:12.114Z,21.60
2019-01-21T12:51:25.375Z,21.50
2019-01-21T12:54:49.741Z,21.50
2019-01-21T12:57:59.782Z,21.50
2019-01-21T13:01:09.438Z,21.50
2019-01-21T13:04:12.235Z,21.50
2019-01-21T13:07:19.462Z,21.40
2019-01-21T13:10:35.449Z,21.40
2019-01-21T13:13:53.149Z,21.30
2019-01-21T13:17:12.077Z,21.30
2019-01-21T13:20:02.525Z,21.30
2019-01-21T13:22:59.909Z,21.30
2019-01-21T13:26:04.877Z,21.30
2019-01-21T13:29:29.534Z,21.30
2019-01-21T13:32:37.806Z,21.30
2019-01-21T13:35:50.019Z,21.30
2019-01-21T13:38:46.837Z,21.30
2019-01-21T13:41:50.422Z,21.30
2019-01-21T13:44:42.966Z,21.30
2019-01-21T13:47:59.208Z,21.30
2019-01-21T13:51:20.441Z,21.40
2019-01-21T13:54:22.678Z,21.40
2019-01-21T13:57:31.305Z,21.40
2019-01-21T14:00:28.553Z,21.50
2019-01-21T14:03:15.921Z,21.50
2019-01-21T14:06:06.388Z,21.50
2019-01-21T14:09:11.797Z,21.50
2019-01-21T14:11:55.559Z,21.40
2019-01-21T14:14:47.809Z,21.50
2019-01-21T14:17:48.745Z,21.40
2019-01-21T14:21:01.734Z,21.40
2019-01-21T14:24:09.937Z,21.40
2019-01-21T14:26:53.375Z,21.40
2019-01-21T14:29:56.901Z,21.40
2019-01-21T14:32:38.380Z,21.40
2019-01-21T14:35:51.026Z,21.30
2019-01-21T14:39:13.266Z,21.30
2019-01-21T14:42:23.661Z,21.30
2019-01-21T14:45:29.550Z,21.30
2019-01-21T14:48:41.419Z,21.20
2019-01-21T14:52:08.645Z,21.20
2019-01-21T14:54:53.273Z,21.20
2019-01-21T14:57:43.321Z,21.20
2019-01-21T15:00:27.582Z,21.20
2019-01-21T15:03:19.735Z,21.20
2019-01-21T15:06:25.605Z,21.20
2019-01-21T15:09:05.106Z,21.20
2019-01-21T15:12:05.145Z,21.20
2019-01-21T15:15:06.461Z,21.20
2019-01-21T15:18:08.943Z,21.10
2019-01-21T15:20:57.514Z,21.10
2019-01-21T15:23:50.258Z,21.10
2019-01-21T15:27:12.693Z,21.10
2019-01-21T15:30:13.052Z,21.10
2019-01-21T15:33:35.675Z,21.10
2019-01-21T15:36:23.364Z,21.10
2019-01-21T15:39:20.013Z,21.00
2019-01-21T15:42:11.521Z,21.00
2019-01-21T15:45:22.003Z,20.90
2019-01-21T15:48:31.958Z,20.90
2019-01-21T15:51:23.841Z,20.90
2019-01-21T15:54:02.842Z,20.90
2019-01-21T15:57:25.921Z,20.90
2019-01-21T16:00:39.097Z,20.90
2019-01-21T16:03:58.282Z,20.80
2019-01-21T16:07:04.409Z,20.80
2019-01-21T16:10:11.899Z,20.80
2019-01-21T16:13:07.682Z,20.80
2019-01-21T16:16:14.906Z,20.80
2019-01-21T16:18:54.545Z,20.80
2019-01-21T16:21:59.932Z,20.80
2019-01-21T16:24:55.580Z,20.80
2019-01-21T16:27:49.078Z,20.80
2019-01-21T16:30:29.433Z,20.70
2019-01-21T16:33:43.878Z,20.70
2019-01-21T16:36:27.142Z,20.70
2019-01-21T16:39:32.730Z,20.70
2019-01-21T16:42:15.981Z,20.70
2019-01-21T16:44:46.969Z,20.70
2019-01-21T16:47:16.227Z,20.70
2019-01-21T16:49:45.294Z,20.70
2019-01-21T16:52:14.237Z,20.70
2019-01-21T16:54:43.442Z,20.70
2019-01-21T16:57:12.373Z,20.70
2019-01-21T16:59:41.166Z,20.60
2019-01-21T17:02:10.088Z,20.60
2019-01-21T17:04:39.226Z,20.60
2019-01-21T17:07:08.106Z,20.60
2019-01-21T17:09:37.061Z,20.60
2019-01-21T17:12:06.230Z,20.60
2019-01-21T17:14:35.094Z,20.60
2019-01-21T17:17:03.946Z,20.60
2019-01-21T17:19:32.715Z,20.60
2019-01-21T17:22:01.621Z,20.60
2019-01-21T17:24:30.425Z,20.60
2019-01-21T17:26:59.309Z,20.60
2019-01-21T17:29:28.292Z,20.60
2019-01-21T17:31:57.192Z,20.60
2019-01-21T17:34:25.965Z,20.60
2019-01-21T17:36:54.741Z,20.60
2019-01-21T17:39:25.488Z,20.60
2019-01-21T17:41:54.348Z,20.60
2019-01-21T17:44:23.429Z,20.50
2019-01-21T17:46:52.762Z,20.50
2019-01-21T17:49:21.559Z,20.50
2019-01-21T17:51:50.322Z,20.50
2019-01-21T17:54:19.445Z,20.50
2019-01-21T17:56:48.282Z,20.50
2019-01-21T17:59:17.046Z,20.50
2019-01-21T18:01:45.894Z,20.50
2019-01-21T18:04:14.756Z,20.50
2019-01-21T18:06:43.617Z,20.50
2019-01-21T18:09:12.521Z,20.50
2019-01-21T18:11:41.632Z,20.50
2019-01-21T18:14:10.494Z,20.50
2019-01-21T18:16:39.506Z,20.50
2019-01-21T18:19:08.301Z,20.50
2019-01-21T18:21:40.185Z,20.50
2019-01-21T18:24:08.329Z,20.50
2019-01-21T18:26:37.219Z,20.50
2019-01-21T18:29:06.238Z,20.50
2019-01-21T18:31:35.064Z,20.50
2019-01-21T18:34:04.024Z,20.50
2019-01-21T18:36:32.790Z,20.50
2019-01-21T18:39:01.629Z,20.50
2019-01-21T18:41:30.461Z,20.50
2019-01-21T18:43:59.509Z,20.50
2019-01-21T18:46:28.281Z,20.50
2019-01-21T18:49:00.401Z,20.50
2019-01-21T18:51:29.321Z,20.50
2019-01-21T18:53:58.383Z,20.50
2019-01-21T18:56:27.271Z,20.50
2019-01-21T18:58:56.025Z,20.50
2019-01-21T19:01:24.893Z,20.50
2019-01-21T19:04:12.988Z,20.50
2019-01-21T19:06:41.837Z,20.50
2019-01-21T19:09:10.627Z,20.50
2019-01-21T19:11:39.502Z,20.50
2019-01-21T19:14:08.455Z,20.50
2019-01-21T19:16:37.374Z,20.50
2019-01-21T19:19:06.289Z,20.50
2019-01-21T19:21:35.417Z,20.60
2019-01-21T19:24:05.010Z,20.50
2019-01-21T19:26:33.814Z,20.60
2019-01-21T19:29:02.626Z,20.60
2019-01-21T19:31:31.653Z,20.60
2019-01-21T19:34:00.441Z,20.60
2019-01-21T19:36:29.303Z,20.60
2019-01-21T19:38:58.201Z,20.60
2019-01-21T19:41:27.109Z,20.60
2019-01-21T19:43:55.932Z,20.60
2019-01-21T19:54:37.003Z,19.10
2019-01-21T19:57:05.994Z,17.00
2019-01-21T20:00:13.970Z,15.00
2019-01-21T20:02:42.878Z,13.20
2019-01-21T20:05:12.093Z,11.30
2019-01-21T20:07:41.012Z,10.00
2019-01-21T20:10:12.617Z,9.10
2019-01-21T20:12:41.501Z,8.20
2019-01-21T20:15:11.482Z,7.50
2019-01-21T20:17:40.295Z,7.00
2019-01-21T20:20:12.862Z,6.50
2019-01-21T20:22:41.742Z,6.10
2019-01-21T20:25:11.935Z,5.80
2019-01-21T20:27:41.002Z,5.60
2019-01-21T20:30:12.323Z,5.30
2019-01-21T20:32:42.385Z,4.90
2019-01-21T20:35:11.850Z,4.60
2019-01-21T20:37:40.916Z,4.40
2019-01-21T20:40:12.835Z,4.10
2019-01-21T20:42:41.939Z,3.90
2019-01-21T20:45:11.359Z,3.70
2019-01-21T20:47:40.454Z,3.50
2019-01-21T20:50:13.031Z,3.40
2019-01-21T20:52:42.082Z,3.20
2019-01-21T20:55:11.643Z,3.10
2019-01-21T20:57:40.752Z,3.00
2019-01-21T21:00:13.129Z,2.90
2019-01-21T21:02:42.321Z,2.90
2019-01-21T21:05:11.479Z,2.80
2019-01-21T21:07:40.698Z,2.80
2019-01-21T21:10:10.270Z,2.70
2019-01-21T21:12:39.447Z,2.70
2019-01-21T21:15:12.485Z,2.70
2019-01-21T21:17:41.677Z,2.70
2019-01-21T21:20:11.959Z,2.80
2019-01-21T21:22:41.118Z,2.70
2019-01-21T21:25:11.770Z,2.70
2019-01-21T21:27:40.786Z,2.60
2019-01-21T21:30:13.954Z,2.60
2019-01-21T21:32:42.954Z,2.60
2019-01-21T21:35:12.189Z,2.60
2019-01-21T21:37:41.561Z,2.60
2019-01-21T21:40:13.334Z,2.70
2019-01-21T21:42:42.606Z,2.70
2019-01-21T21:45:12.973Z,2.70
2019-01-21T21:47:42.031Z,2.70
2019-01-21T21:50:23.435Z,2.70
2019-01-21T21:52:52.643Z,2.70
2019-01-21T21:55:21.883Z,2.70
2019-01-21T21:57:51.510Z,2.70
2019-01-21T22:00:22.944Z,2.70
2019-01-21T22:02:52.482Z,2.70
2019-01-21T22:05:21.961Z,2.60
2019-01-21T22:07:51.212Z,2.60
2019-01-21T22:10:22.835Z,2.60
2019-01-21T22:12:52.540Z,2.60
2019-01-21T22:15:23.804Z,2.60
2019-01-21T22:17:53.345Z,2.60
2019-01-21T22:20:23.883Z,2.60
2019-01-21T22:22:53.578Z,2.60
2019-01-21T22:25:22.973Z,2.60
2019-01-21T22:27:52.112Z,2.60
2019-01-21T22:30:26.257Z,2.50
2019-01-21T22:32:55.132Z,2.50
2019-01-21T22:35:24.144Z,2.50
2019-01-21T22:37:53.250Z,2.50
2019-01-21T22:40:23.620Z,2.40
2019-01-21T22:42:52.714Z,2.40
2019-01-21T22:45:22.282Z,2.40
2019-01-21T22:47:51.260Z,2.50
2019-01-21T22:50:21.335Z,2.50
2019-01-21T22:52:50.667Z,2.50
2019-01-21T22:55:19.843Z,2.50
2019-01-21T22:57:48.990Z,2.50
2019-01-21T23:00:53.061Z,2.50
2019-01-21T23:03:22.546Z,2.40
2019-01-21T23:05:51.508Z,2.40
2019-01-21T23:08:21.139Z,2.40
2019-01-21T23:10:50.276Z,2.40
2019-01-21T23:13:19.646Z,2.40
2019-01-21T23:15:48.683Z,2.40
2019-01-21T23:18:17.650Z,2.30
2019-01-21T23:20:46.670Z,2.30
2019-01-21T23:23:15.809Z,2.30
2019-01-21T23:25:44.571Z,2.30
2019-01-21T23:28:13.478Z,2.30
2019-01-21T23:30:42.542Z,2.30
2019-01-21T23:33:11.663Z,2.20
2019-01-21T23:35:40.514Z,2.20
2019-01-21T23:38:09.390Z,2.20
2019-01-21T23:40:38.162Z,2.20
2019-01-21T23:43:07.157Z,2.20
2019-01-21T23:45:36.061Z,2.20
2019-01-21T23:48:05.361Z,2.20
2019-01-21T23:50:34.162Z,2.20
2019-01-21T23:53:03.263Z,2.20
2019-01-21T23:55:32.334Z,2.10
2019-01-21T23:58:01.283Z,2.10
